sensor_id;sensor_type;location;lat;lon;timestamp;pressure;altitude;pressure_sealevel;temperature;humidity
24280;BME280;12395;42.808;23.408;2023-04-08T00:02:15;94970.78;;;3.96;86.43
24280;BME280;12395;42.808;23.408;2023-04-08T00:04:40;94966.66;;;3.93;86.25
24280;BME280;12395;42.808;23.408;2023-04-08T00:07:06;94971.09;;;4.01;85.80
24280;BME280;12395;42.808;23.408;2023-04-08T00:09:32;94969.00;;;3.88;86.00
24280;BME280;12395;42.808;23.408;2023-04-08T00:11:57;94973.56;;;3.95;85.51
24280;BME280;12395;42.808;23.408;2023-04-08T00:14:23;94973.59;;;3.86;85.83
24280;BME280;12395;42.808;23.408;2023-04-08T00:16:48;94971.78;;;3.87;86.44
24280;BME280;12395;42.808;23.408;2023-04-08T00:19:13;94969.97;;;3.96;85.55
24280;BME280;12395;42.808;23.408;2023-04-08T00:21:39;94976.19;;;3.95;84.84
24280;BME280;12395;42.808;23.408;2023-04-08T00:24:05;94968.81;;;3.98;85.17
24280;BME280;12395;42.808;23.408;2023-04-08T00:26:31;94970.94;;;4.03;84.69
24280;BME280;12395;42.808;23.408;2023-04-08T00:28:56;94966.69;;;4.02;84.76
24280;BME280;12395;42.808;23.408;2023-04-08T00:31:22;94969.75;;;4.13;84.61
24280;BME280;12395;42.808;23.408;2023-04-08T00:33:48;94964.88;;;4.10;84.76
24280;BME280;12395;42.808;23.408;2023-04-08T00:36:13;94958.63;;;4.11;84.38
24280;BME280;12395;42.808;23.408;2023-04-08T00:38:38;94958.78;;;4.18;84.11
24280;BME280;12395;42.808;23.408;2023-04-08T00:41:04;94959.13;;;4.15;85.32
24280;BME280;12395;42.808;23.408;2023-04-08T00:43:29;94972.72;;;4.18;84.61
24280;BME280;12395;42.808;23.408;2023-04-08T00:45:55;94972.75;;;4.10;84.49
24280;BME280;12395;42.808;23.408;2023-04-08T00:48:20;94969.47;;;4.08;84.77
24280;BME280;12395;42.808;23.408;2023-04-08T00:50:46;94972.06;;;4.16;84.90
24280;BME280;12395;42.808;23.408;2023-04-08T00:53:16;94987.47;;;4.27;84.56
24280;BME280;12395;42.808;23.408;2023-04-08T00:55:41;94982.22;;;4.27;85.95
24280;BME280;12395;42.808;23.408;2023-04-08T00:58:07;94983.34;;;4.33;87.07
24280;BME280;12395;42.808;23.408;2023-04-08T01:00:35;94978.59;;;4.28;87.87
24280;BME280;12395;42.808;23.408;2023-04-08T01:03:13;94993.97;;;4.39;87.74
24280;BME280;12395;42.808;23.408;2023-04-08T01:06:04;94999.41;;;4.38;86.98
24280;BME280;12395;42.808;23.408;2023-04-08T01:08:33;94982.22;;;4.27;85.79
24280;BME280;12395;42.808;23.408;2023-04-08T01:11:01;94993.50;;;4.36;85.89
24280;BME280;12395;42.808;23.408;2023-04-08T01:13:29;94981.06;;;4.30;85.74
24280;BME280;12395;42.808;23.408;2023-04-08T01:15:55;94985.97;;;4.33;86.15
24280;BME280;12395;42.808;23.408;2023-04-08T01:18:21;94985.47;;;4.37;86.41
24280;BME280;12395;42.808;23.408;2023-04-08T01:20:48;94984.50;;;4.38;87.59
24280;BME280;12395;42.808;23.408;2023-04-08T01:25:55;94974.97;;;4.37;86.49
24280;BME280;12395;42.808;23.408;2023-04-08T01:28:24;94989.06;;;4.44;87.35
24280;BME280;12395;42.808;23.408;2023-04-08T01:30:54;94975.94;;;4.36;87.92
24280;BME280;12395;42.808;23.408;2023-04-08T01:33:21;94980.53;;;4.42;87.87
24280;BME280;12395;42.808;23.408;2023-04-08T01:35:47;94991.00;;;4.50;87.34
24280;BME280;12395;42.808;23.408;2023-04-08T01:38:18;94998.06;;;4.42;85.89
24280;BME280;12395;42.808;23.408;2023-04-08T01:40:45;94988.09;;;4.29;85.70
24280;BME280;12395;42.808;23.408;2023-04-08T01:43:13;94980.09;;;4.23;85.84
24280;BME280;12395;42.808;23.408;2023-04-08T01:45:42;94986.66;;;4.19;86.26
24280;BME280;12395;42.808;23.408;2023-04-08T01:48:08;94982.41;;;4.10;86.77
24280;BME280;12395;42.808;23.408;2023-04-08T01:50:34;94982.56;;;4.08;86.70
24280;BME280;12395;42.808;23.408;2023-04-08T01:53:01;94979.47;;;3.97;86.23
24280;BME280;12395;42.808;23.408;2023-04-08T01:55:28;94982.91;;;3.97;87.27
24280;BME280;12395;42.808;23.408;2023-04-08T01:57:58;94971.44;;;3.90;87.09
24280;BME280;12395;42.808;23.408;2023-04-08T02:00:27;94996.00;;;4.05;86.81
24280;BME280;12395;42.808;23.408;2023-04-08T02:02:54;94987.81;;;4.00;86.50
24280;BME280;12395;42.808;23.408;2023-04-08T02:05:20;94990.09;;;4.03;86.46
24280;BME280;12395;42.808;23.408;2023-04-08T02:07:48;94992.06;;;4.01;87.34
24280;BME280;12395;42.808;23.408;2023-04-08T02:10:14;94994.38;;;3.88;87.75
24280;BME280;12395;42.808;23.408;2023-04-08T02:12:41;95012.38;;;3.99;87.32
24280;BME280;12395;42.808;23.408;2023-04-08T02:15:08;95019.41;;;4.07;87.35
24280;BME280;12395;42.808;23.408;2023-04-08T02:22:40;95019.41;;;4.23;90.07
24280;BME280;12395;42.808;23.408;2023-04-08T02:25:13;95010.25;;;4.19;89.76
24280;BME280;12395;42.808;23.408;2023-04-08T02:27:40;95024.66;;;4.23;88.19
24280;BME280;12395;42.808;23.408;2023-04-08T02:30:07;95024.31;;;4.26;89.23
24280;BME280;12395;42.808;23.408;2023-04-08T02:32:35;95022.19;;;4.29;89.69
24280;BME280;12395;42.808;23.408;2023-04-08T02:35:01;95021.69;;;4.34;90.30
24280;BME280;12395;42.808;23.408;2023-04-08T02:37:28;95026.94;;;4.34;91.09
24280;BME280;12395;42.808;23.408;2023-04-08T02:39:57;95030.03;;;4.37;90.59
24280;BME280;12395;42.808;23.408;2023-04-08T02:42:23;95017.94;;;4.28;89.84
24280;BME280;12395;42.808;23.408;2023-04-08T02:44:49;95009.09;;;4.21;89.74
24280;BME280;12395;42.808;23.408;2023-04-08T02:47:14;95009.91;;;4.22;90.51
24280;BME280;12395;42.808;23.408;2023-04-08T02:49:39;95022.34;;;4.28;90.25
24280;BME280;12395;42.808;23.408;2023-04-08T02:52:05;95010.41;;;4.25;89.32
24280;BME280;12395;42.808;23.408;2023-04-08T02:54:30;95012.69;;;4.28;89.57
24280;BME280;12395;42.808;23.408;2023-04-08T02:56:56;95013.19;;;4.32;89.16
24280;BME280;12395;42.808;23.408;2023-04-08T02:59:21;95011.03;;;4.35;89.06
24280;BME280;12395;42.808;23.408;2023-04-08T03:01:47;95007.13;;;4.31;88.42
24280;BME280;12395;42.808;23.408;2023-04-08T03:04:12;95024.97;;;4.36;87.97
24280;BME280;12395;42.808;23.408;2023-04-08T03:06:37;95014.66;;;4.26;87.90
24280;BME280;12395;42.808;23.408;2023-04-08T03:09:03;95019.56;;;4.29;87.90
24280;BME280;12395;42.808;23.408;2023-04-08T03:11:30;95016.13;;;4.29;88.38
24280;BME280;12395;42.808;23.408;2023-04-08T03:13:55;95008.75;;;4.24;88.23
24280;BME280;12395;42.808;23.408;2023-04-08T03:16:20;95012.84;;;4.27;89.96
24280;BME280;12395;42.808;23.408;2023-04-08T03:18:46;95006.47;;;4.21;89.64
24280;BME280;12395;42.808;23.408;2023-04-08T03:21:13;95001.88;;;4.15;89.24
24280;BME280;12395;42.808;23.408;2023-04-08T03:23:38;94985.03;;;4.10;89.28
24280;BME280;12395;42.808;23.408;2023-04-08T03:26:04;95010.56;;;4.24;89.32
24280;BME280;12395;42.808;23.408;2023-04-08T03:28:29;94999.59;;;4.20;89.77
24280;BME280;12395;42.808;23.408;2023-04-08T03:30:55;95001.41;;;4.12;89.18
24280;BME280;12395;42.808;23.408;2023-04-08T03:33:20;94998.59;;;4.13;89.42
24280;BME280;12395;42.808;23.408;2023-04-08T03:35:46;95001.22;;;4.13;89.06
24280;BME280;12395;42.808;23.408;2023-04-08T03:38:11;94997.66;;;4.06;88.83
24280;BME280;12395;42.808;23.408;2023-04-08T03:40:36;95003.19;;;4.11;88.98
24280;BME280;12395;42.808;23.408;2023-04-08T03:43:02;95015.31;;;4.20;89.14
24280;BME280;12395;42.808;23.408;2023-04-08T03:45:27;95004.19;;;4.10;89.78
24280;BME280;12395;42.808;23.408;2023-04-08T03:47:53;94984.38;;;4.00;90.18
24280;BME280;12395;42.808;23.408;2023-04-08T03:50:18;95015.31;;;4.20;91.38
24280;BME280;12395;42.808;23.408;2023-04-08T03:52:44;95012.06;;;4.18;91.21
24280;BME280;12395;42.808;23.408;2023-04-08T03:55:09;95009.44;;;4.10;91.21
24280;BME280;12395;42.808;23.408;2023-04-08T03:57:34;95008.78;;;4.00;90.56
24280;BME280;12395;42.808;23.408;2023-04-08T04:00:00;95023.19;;;4.12;90.90
24280;BME280;12395;42.808;23.408;2023-04-08T04:02:25;95010.91;;;4.05;91.60
24280;BME280;12395;42.808;23.408;2023-04-08T04:04:50;95003.88;;;4.05;91.33
24280;BME280;12395;42.808;23.408;2023-04-08T04:07:16;95010.91;;;4.05;90.68
24280;BME280;12395;42.808;23.408;2023-04-08T04:09:41;95008.47;;;4.03;90.47
24280;BME280;12395;42.808;23.408;2023-04-08T04:12:07;95002.09;;;3.98;90.73
24280;BME280;12395;42.808;23.408;2023-04-08T04:14:32;95001.91;;;3.99;90.96
24280;BME280;12395;42.808;23.408;2023-04-08T04:16:57;95011.72;;;4.05;91.38
24280;BME280;12395;42.808;23.408;2023-04-08T04:19:23;94992.56;;;4.05;91.94
24280;BME280;12395;42.808;23.408;2023-04-08T04:21:48;94995.97;;;4.13;93.29
24280;BME280;12395;42.808;23.408;2023-04-08T04:24:14;95012.03;;;4.26;94.19
24280;BME280;12395;42.808;23.408;2023-04-08T04:26:40;95018.25;;;4.33;94.12
24280;BME280;12395;42.808;23.408;2023-04-08T04:29:06;95016.13;;;4.29;93.72
24280;BME280;12395;42.808;23.408;2023-04-08T04:31:31;95014.97;;;4.31;94.52
24280;BME280;12395;42.808;23.408;2023-04-08T04:33:57;95023.50;;;4.33;95.21
24280;BME280;12395;42.808;23.408;2023-04-08T04:36:22;95025.13;;;4.42;94.95
24280;BME280;12395;42.808;23.408;2023-04-08T04:38:48;95041.00;;;4.57;94.71
24280;BME280;12395;42.808;23.408;2023-04-08T04:41:14;95024.75;;;4.53;95.01
24280;BME280;12395;42.808;23.408;2023-04-08T04:43:40;95009.03;;;4.45;94.94
24280;BME280;12395;42.808;23.408;2023-04-08T04:46:05;95023.81;;;4.46;94.34
24280;BME280;12395;42.808;23.408;2023-04-08T04:48:35;95032.97;;;4.50;94.68
24280;BME280;12395;42.808;23.408;2023-04-08T04:51:01;95024.25;;;4.58;94.87
24280;BME280;12395;42.808;23.408;2023-04-08T04:53:31;95015.59;;;4.57;92.71
24280;BME280;12395;42.808;23.408;2023-04-08T04:55:57;95047.03;;;4.74;90.84
24280;BME280;12395;42.808;23.408;2023-04-08T04:58:22;95045.69;;;4.78;90.17
24280;BME280;12395;42.808;23.408;2023-04-08T05:00:47;95031.94;;;4.76;89.85
24280;BME280;12395;42.808;23.408;2023-04-08T05:03:13;95031.25;;;4.82;88.56
24280;BME280;12395;42.808;23.408;2023-04-08T05:05:38;95029.91;;;4.94;88.64
24280;BME280;12395;42.808;23.408;2023-04-08T05:08:04;95025.25;;;5.04;91.40
24280;BME280;12395;42.808;23.408;2023-04-08T05:10:31;95029.00;;;5.17;92.16
24280;BME280;12395;42.808;23.408;2023-04-08T05:12:56;95030.75;;;5.25;91.78
24280;BME280;12395;42.808;23.408;2023-04-08T05:15:22;95026.09;;;5.35;91.71
24280;BME280;12395;42.808;23.408;2023-04-08T05:17:47;95024.75;;;5.39;91.96
24280;BME280;12395;42.808;23.408;2023-04-08T05:20:12;95039.28;;;5.58;91.28
24280;BME280;12395;42.808;23.408;2023-04-08T05:22:38;95025.91;;;5.67;90.77
24280;BME280;12395;42.808;23.408;2023-04-08T05:25:04;95038.28;;;5.89;90.30
24280;BME280;12395;42.808;23.408;2023-04-08T05:27:30;95031.25;;;6.04;88.50
24280;BME280;12395;42.808;23.408;2023-04-08T05:29:56;95030.31;;;6.20;86.42
24280;BME280;12395;42.808;23.408;2023-04-08T05:32:21;95032.16;;;6.34;86.21
24280;BME280;12395;42.808;23.408;2023-04-08T05:34:47;95030.56;;;6.48;84.43
24280;BME280;12395;42.808;23.408;2023-04-08T05:37:12;95031.63;;;6.53;84.41
24280;BME280;12395;42.808;23.408;2023-04-08T05:39:37;95037.84;;;6.75;84.25
24280;BME280;12395;42.808;23.408;2023-04-08T05:42:03;95041.41;;;6.82;83.27
24280;BME280;12395;42.808;23.408;2023-04-08T05:44:28;95042.84;;;6.99;81.72
24280;BME280;12395;42.808;23.408;2023-04-08T05:46:54;95041.38;;;7.11;80.68
24280;BME280;12395;42.808;23.408;2023-04-08T05:51:52;95049.63;;;7.37;81.30
24280;BME280;12395;42.808;23.408;2023-04-08T05:54:17;95033.34;;;7.48;80.46
24280;BME280;12395;42.808;23.408;2023-04-08T05:56:42;95046.50;;;7.63;79.62
24280;BME280;12395;42.808;23.408;2023-04-08T05:59:10;95057.63;;;7.79;79.14
24280;BME280;12395;42.808;23.408;2023-04-08T06:01:36;95043.81;;;7.77;79.09
24280;BME280;12395;42.808;23.408;2023-04-08T06:04:01;95056.38;;;7.97;79.76
24280;BME280;12395;42.808;23.408;2023-04-08T06:06:26;95048.41;;;7.90;77.83
24280;BME280;12395;42.808;23.408;2023-04-08T06:08:52;95048.53;;;8.03;77.78
24280;BME280;12395;42.808;23.408;2023-04-08T06:11:17;95056.44;;;8.24;77.99
24280;BME280;12395;42.808;23.408;2023-04-08T06:13:43;95041.19;;;8.20;76.02
24280;BME280;12395;42.808;23.408;2023-04-08T06:16:13;95057.94;;;8.27;75.96
24280;BME280;12395;42.808;23.408;2023-04-08T06:18:39;95036.06;;;8.33;75.07
24280;BME280;12395;42.808;23.408;2023-04-08T06:21:04;95046.63;;;8.33;75.09
24280;BME280;12395;42.808;23.408;2023-04-08T06:23:30;95047.16;;;8.49;75.01
24280;BME280;12395;42.808;23.408;2023-04-08T06:25:55;95050.97;;;8.68;74.90
24280;BME280;12395;42.808;23.408;2023-04-08T06:28:21;95038.56;;;8.69;73.48
24280;BME280;12395;42.808;23.408;2023-04-08T06:30:46;95059.75;;;8.75;73.58
24280;BME280;12395;42.808;23.408;2023-04-08T06:33:12;95049.63;;;8.79;74.38
24280;BME280;12395;42.808;23.408;2023-04-08T06:35:37;95060.63;;;8.82;72.93
24280;BME280;12395;42.808;23.408;2023-04-08T06:38:03;95050.50;;;8.92;73.70
24280;BME280;12395;42.808;23.408;2023-04-08T06:40:28;95043.16;;;8.88;73.77
24280;BME280;12395;42.808;23.408;2023-04-08T06:42:54;95051.22;;;9.07;72.30
24280;BME280;12395;42.808;23.408;2023-04-08T06:45:19;95061.06;;;9.20;72.00
24280;BME280;12395;42.808;23.408;2023-04-08T06:47:45;95054.41;;;9.30;71.21
24280;BME280;12395;42.808;23.408;2023-04-08T06:50:10;95053.78;;;9.28;71.36
24280;BME280;12395;42.808;23.408;2023-04-08T06:52:36;95055.63;;;9.34;71.63
24280;BME280;12395;42.808;23.408;2023-04-08T06:55:01;95058.63;;;9.59;71.43
24280;BME280;12395;42.808;23.408;2023-04-08T06:57:27;95056.22;;;9.71;70.98
24280;BME280;12395;42.808;23.408;2023-04-08T06:59:52;95060.34;;;9.86;70.15
24280;BME280;12395;42.808;23.408;2023-04-08T07:02:18;95070.75;;;10.01;70.46
24280;BME280;12395;42.808;23.408;2023-04-08T07:04:43;95067.88;;;9.89;70.11
24280;BME280;12395;42.808;23.408;2023-04-08T07:07:09;95068.66;;;9.77;69.24
24280;BME280;12395;42.808;23.408;2023-04-08T07:09:34;95069.44;;;9.64;70.60
24280;BME280;12395;42.808;23.408;2023-04-08T07:12:01;95077.28;;;9.45;71.13
24280;BME280;12395;42.808;23.408;2023-04-08T07:14:27;95070.34;;;9.44;71.94
24280;BME280;12395;42.808;23.408;2023-04-08T07:16:54;95075.78;;;9.36;72.39
24280;BME280;12395;42.808;23.408;2023-04-08T07:19:20;95057.22;;;9.22;72.98
24280;BME280;12395;42.808;23.408;2023-04-08T07:21:47;95064.34;;;9.28;73.19
24280;BME280;12395;42.808;23.408;2023-04-08T07:24:12;95084.22;;;9.52;73.25
24280;BME280;12395;42.808;23.408;2023-04-08T07:26:38;95079.19;;;9.64;71.74
24280;BME280;12395;42.808;23.408;2023-04-08T07:29:03;95080.84;;;9.78;70.51
24280;BME280;12395;42.808;23.408;2023-04-08T07:31:29;95082.97;;;9.95;69.98
24280;BME280;12395;42.808;23.408;2023-04-08T07:33:54;95091.34;;;10.05;69.02
24280;BME280;12395;42.808;23.408;2023-04-08T07:36:20;95082.78;;;10.03;68.85
24280;BME280;12395;42.808;23.408;2023-04-08T07:38:46;95081.41;;;10.14;68.65
24280;BME280;12395;42.808;23.408;2023-04-08T07:41:11;95088.56;;;10.14;67.76
24280;BME280;12395;42.808;23.408;2023-04-08T07:43:37;95098.97;;;10.28;68.57
24280;BME280;12395;42.808;23.408;2023-04-08T07:46:04;95098.78;;;10.43;68.82
24280;BME280;12395;42.808;23.408;2023-04-08T07:48:33;95092.03;;;10.27;67.92
24280;BME280;12395;42.808;23.408;2023-04-08T07:51:04;95099.00;;;10.35;67.41
24280;BME280;12395;42.808;23.408;2023-04-08T07:53:30;95102.66;;;10.40;67.77
24280;BME280;12395;42.808;23.408;2023-04-08T07:55:56;95099.63;;;10.50;67.87
24280;BME280;12395;42.808;23.408;2023-04-08T07:58:21;95111.47;;;10.60;67.89
24280;BME280;12395;42.808;23.408;2023-04-08T08:00:47;95096.34;;;10.54;67.31
24280;BME280;12395;42.808;23.408;2023-04-08T08:03:12;95104.91;;;10.69;67.27
24280;BME280;12395;42.808;23.408;2023-04-08T08:05:37;95109.00;;;10.65;66.88
24280;BME280;12395;42.808;23.408;2023-04-08T08:08:03;95107.19;;;10.66;67.30
24280;BME280;12395;42.808;23.408;2023-04-08T08:10:29;95113.91;;;10.81;66.47
24280;BME280;12395;42.808;23.408;2023-04-08T08:12:54;95108.19;;;10.78;66.51
24280;BME280;12395;42.808;23.408;2023-04-08T08:15:22;95105.16;;;10.88;67.84
24280;BME280;12395;42.808;23.408;2023-04-08T08:17:48;95085.78;;;10.87;66.64
24280;BME280;12395;42.808;23.408;2023-04-08T08:20:13;95087.81;;;10.92;67.90
24280;BME280;12395;42.808;23.408;2023-04-08T08:22:38;95101.44;;;11.15;67.58
24280;BME280;12395;42.808;23.408;2023-04-08T08:25:05;95101.66;;;11.33;65.27
24280;BME280;12395;42.808;23.408;2023-04-08T08:27:31;95104.47;;;11.44;66.08
24280;BME280;12395;42.808;23.408;2023-04-08T08:29:58;95107.53;;;11.48;67.23
24280;BME280;12395;42.808;23.408;2023-04-08T08:32:24;95110.38;;;11.46;65.27
24280;BME280;12395;42.808;23.408;2023-04-08T08:34:49;95115.50;;;11.41;64.96
24280;BME280;12395;42.808;23.408;2023-04-08T08:37:15;95113.88;;;11.27;65.36
24280;BME280;12395;42.808;23.408;2023-04-08T08:39:40;95104.09;;;11.28;65.83
24280;BME280;12395;42.808;23.408;2023-04-08T08:42:06;95134.66;;;11.63;64.56
24280;BME280;12395;42.808;23.408;2023-04-08T08:44:31;95115.88;;;11.51;64.30
24280;BME280;12395;42.808;23.408;2023-04-08T08:46:57;95109.16;;;11.42;64.69
24280;BME280;12395;42.808;23.408;2023-04-08T08:49:22;95122.00;;;11.52;65.26
24280;BME280;12395;42.808;23.408;2023-04-08T08:51:48;95134.66;;;11.63;63.48
24280;BME280;12395;42.808;23.408;2023-04-08T08:54:15;95131.19;;;11.56;63.38
24280;BME280;12395;42.808;23.408;2023-04-08T08:56:41;95128.16;;;11.52;64.13
24280;BME280;12395;42.808;23.408;2023-04-08T08:59:08;95125.25;;;11.60;64.73
24280;BME280;12395;42.808;23.408;2023-04-08T09:01:37;95133.84;;;11.69;65.23
24280;BME280;12395;42.808;23.408;2023-04-08T09:04:14;95126.25;;;11.66;63.86
24280;BME280;12395;42.808;23.408;2023-04-08T09:06:41;95117.53;;;11.52;64.78
24280;BME280;12395;42.808;23.408;2023-04-08T09:09:08;95121.59;;;11.55;62.46
24280;BME280;12395;42.808;23.408;2023-04-08T09:11:37;95140.97;;;11.69;63.85
24280;BME280;12395;42.808;23.408;2023-04-08T09:14:04;95134.66;;;11.70;63.38
24280;BME280;12395;42.808;23.408;2023-04-08T09:16:30;95116.84;;;11.77;63.72
24280;BME280;12395;42.808;23.408;2023-04-08T09:19:07;95130.03;;;12.09;64.23
24280;BME280;12395;42.808;23.408;2023-04-08T09:21:33;95114.75;;;12.36;62.23
24280;BME280;12395;42.808;23.408;2023-04-08T09:23:59;95129.13;;;12.60;62.04
24280;BME280;12395;42.808;23.408;2023-04-08T09:26:25;95139.78;;;12.91;60.24
24280;BME280;12395;42.808;23.408;2023-04-08T09:29:07;95129.91;;;12.98;59.03
24280;BME280;12395;42.808;23.408;2023-04-08T09:31:35;95143.19;;;13.29;58.34
24280;BME280;12395;42.808;23.408;2023-04-08T09:34:10;95133.31;;;13.36;57.65
24280;BME280;12395;42.808;23.408;2023-04-08T09:36:36;95125.84;;;13.45;57.16
24280;BME280;12395;42.808;23.408;2023-04-08T09:39:02;95122.22;;;13.39;56.88
24280;BME280;12395;42.808;23.408;2023-04-08T09:41:28;95115.91;;;13.09;57.21
24280;BME280;12395;42.808;23.408;2023-04-08T09:43:57;95116.63;;;12.98;58.03
24280;BME280;12395;42.808;23.408;2023-04-08T09:49:10;95121.81;;;13.78;56.30
24280;BME280;12395;42.808;23.408;2023-04-08T09:51:44;95109.91;;;13.99;55.51
24280;BME280;12395;42.808;23.408;2023-04-08T09:54:14;95127.56;;;14.12;53.44
24280;BME280;12395;42.808;23.408;2023-04-08T09:56:49;95112.75;;;14.16;54.05
24280;BME280;12395;42.808;23.408;2023-04-08T09:59:17;95096.50;;;14.06;54.24
24280;BME280;12395;42.808;23.408;2023-04-08T10:01:51;95097.47;;;13.93;55.07
24280;BME280;12395;42.808;23.408;2023-04-08T10:04:19;95089.25;;;13.94;54.96
24280;BME280;12395;42.808;23.408;2023-04-08T10:06:57;95101.91;;;13.99;53.64
24280;BME280;12395;42.808;23.408;2023-04-08T10:09:27;95071.88;;;13.74;52.88
24280;BME280;12395;42.808;23.408;2023-04-08T10:11:53;95087.69;;;13.69;51.40
24280;BME280;12395;42.808;23.408;2023-04-08T10:14:19;95076.31;;;13.44;52.56
24280;BME280;12395;42.808;23.408;2023-04-08T10:16:46;95066.03;;;13.29;54.90
24280;BME280;12395;42.808;23.408;2023-04-08T10:19:37;95074.63;;;13.49;54.42
24280;BME280;12395;42.808;23.408;2023-04-08T10:27:42;95068.38;;;13.19;54.09
24280;BME280;12395;42.808;23.408;2023-04-08T10:32:55;95061.78;;;12.97;55.15
24280;BME280;12395;42.808;23.408;2023-04-08T10:35:37;95053.97;;;13.02;55.09
24280;BME280;12395;42.808;23.408;2023-04-08T10:38:06;95048.81;;;13.07;53.41
24280;BME280;12395;42.808;23.408;2023-04-08T10:40:36;95054.03;;;13.20;53.65
24280;BME280;12395;42.808;23.408;2023-04-08T10:43:03;95044.13;;;13.27;53.20
24280;BME280;12395;42.808;23.408;2023-04-08T10:45:30;95028.09;;;13.34;51.62
24280;BME280;12395;42.808;23.408;2023-04-08T10:47:55;95048.72;;;13.56;50.56
24280;BME280;12395;42.808;23.408;2023-04-08T10:50:21;95042.97;;;13.59;52.07
24280;BME280;12395;42.808;23.408;2023-04-08T10:52:48;95048.34;;;13.71;53.29
24280;BME280;12395;42.808;23.408;2023-04-08T10:55:15;95036.13;;;13.81;54.23
24280;BME280;12395;42.808;23.408;2023-04-08T10:57:42;95042.22;;;13.88;52.64
24280;BME280;12395;42.808;23.408;2023-04-08T11:00:11;95051.78;;;14.08;48.12
24280;BME280;12395;42.808;23.408;2023-04-08T11:02:41;95036.34;;;14.28;46.68
24280;BME280;12395;42.808;23.408;2023-04-08T11:05:08;95045.84;;;14.53;47.79
24280;BME280;12395;42.808;23.408;2023-04-08T11:07:39;95036.88;;;14.78;47.81
24280;BME280;12395;42.808;23.408;2023-04-08T11:10:06;95019.94;;;14.84;45.15
24280;BME280;12395;42.808;23.408;2023-04-08T11:12:32;95022.50;;;15.02;47.50
24280;BME280;12395;42.808;23.408;2023-04-08T11:14:58;95019.00;;;15.01;47.45
24280;BME280;12395;42.808;23.408;2023-04-08T11:17:23;95018.78;;;15.14;45.68
24280;BME280;12395;42.808;23.408;2023-04-08T11:19:49;95008.56;;;15.34;46.39
24280;BME280;12395;42.808;23.408;2023-04-08T11:22:14;94998.59;;;15.41;44.88
24280;BME280;12395;42.808;23.408;2023-04-08T11:24:40;95003.09;;;15.53;43.67
24280;BME280;12395;42.808;23.408;2023-04-08T11:27:06;94996.84;;;15.59;44.08
24280;BME280;12395;42.808;23.408;2023-04-08T11:29:32;94997.50;;;15.66;42.55
24280;BME280;12395;42.808;23.408;2023-04-08T11:31:58;95005.09;;;15.97;43.43
24280;BME280;12395;42.808;23.408;2023-04-08T11:34:24;94992.91;;;15.89;41.44
24280;BME280;12395;42.808;23.408;2023-04-08T11:36:50;94994.44;;;15.85;41.38
24280;BME280;12395;42.808;23.408;2023-04-08T11:39:16;94980.06;;;15.75;41.61
24280;BME280;12395;42.808;23.408;2023-04-08T11:41:41;94981.47;;;15.66;41.43
24280;BME280;12395;42.808;23.408;2023-04-08T11:44:08;94973.66;;;15.48;44.43
24280;BME280;12395;42.808;23.408;2023-04-08T11:46:34;94970.94;;;15.36;45.43
24280;BME280;12395;42.808;23.408;2023-04-08T11:49:07;94963.44;;;15.21;43.70
24280;BME280;12395;42.808;23.408;2023-04-08T11:51:33;94960.44;;;15.06;45.50
24280;BME280;12395;42.808;23.408;2023-04-08T11:54:03;94964.63;;;15.02;44.36
24280;BME280;12395;42.808;23.408;2023-04-08T11:56:29;94961.50;;;15.05;43.85
24280;BME280;12395;42.808;23.408;2023-04-08T11:58:54;94966.72;;;15.00;42.27
24280;BME280;12395;42.808;23.408;2023-04-08T12:01:21;94966.00;;;14.93;41.60
24280;BME280;12395;42.808;23.408;2023-04-08T12:03:56;94965.19;;;14.93;43.01
24280;BME280;12395;42.808;23.408;2023-04-08T12:06:22;94962.88;;;14.96;42.99
24280;BME280;12395;42.808;23.408;2023-04-08T12:08:49;94965.66;;;15.01;43.73
24280;BME280;12395;42.808;23.408;2023-04-08T12:11:14;94967.38;;;15.19;41.78
24280;BME280;12395;42.808;23.408;2023-04-08T12:13:40;94953.91;;;15.25;40.99
24280;BME280;12395;42.808;23.408;2023-04-08T12:16:06;94943.81;;;15.27;42.95
24280;BME280;12395;42.808;23.408;2023-04-08T12:18:32;94954.00;;;15.42;42.52
24280;BME280;12395;42.808;23.408;2023-04-08T12:20:57;94947.13;;;15.58;43.46
24280;BME280;12395;42.808;23.408;2023-04-08T12:23:22;94943.00;;;15.78;43.02
24280;BME280;12395;42.808;23.408;2023-04-08T12:25:48;94942.84;;;15.85;40.27
24280;BME280;12395;42.808;23.408;2023-04-08T12:28:13;94944.34;;;15.92;39.86
24280;BME280;12395;42.808;23.408;2023-04-08T12:30:39;94947.28;;;15.91;39.97
24280;BME280;12395;42.808;23.408;2023-04-08T12:33:05;94939.69;;;15.99;39.90
24280;BME280;12395;42.808;23.408;2023-04-08T12:35:30;94939.84;;;16.09;39.91
24280;BME280;12395;42.808;23.408;2023-04-08T12:37:56;94943.97;;;16.17;40.02
24280;BME280;12395;42.808;23.408;2023-04-08T12:40:21;94933.06;;;16.18;40.52
24280;BME280;12395;42.808;23.408;2023-04-08T12:42:46;94935.94;;;16.00;41.68
24280;BME280;12395;42.808;23.408;2023-04-08T12:45:12;94929.94;;;15.65;43.12
24280;BME280;12395;42.808;23.408;2023-04-08T12:47:38;94942.25;;;15.55;44.86
24280;BME280;12395;42.808;23.408;2023-04-08T12:50:04;94934.50;;;15.41;43.50
24280;BME280;12395;42.808;23.408;2023-04-08T12:52:29;94941.38;;;15.37;44.74
24280;BME280;12395;42.808;23.408;2023-04-08T12:54:54;94934.78;;;15.17;45.43
24280;BME280;12395;42.808;23.408;2023-04-08T12:57:20;94933.63;;;15.01;45.40
24280;BME280;12395;42.808;23.408;2023-04-08T12:59:45;94944.41;;;15.06;44.73
24280;BME280;12395;42.808;23.408;2023-04-08T13:02:11;94929.31;;;15.23;44.69
24280;BME280;12395;42.808;23.408;2023-04-08T13:04:37;94938.41;;;15.62;44.42
24280;BME280;12395;42.808;23.408;2023-04-08T13:07:02;94932.97;;;15.85;44.08
24280;BME280;12395;42.808;23.408;2023-04-08T13:09:29;94926.81;;;15.85;42.62
24280;BME280;12395;42.808;23.408;2023-04-08T13:11:55;94939.03;;;15.81;42.57
24280;BME280;12395;42.808;23.408;2023-04-08T13:14:20;94941.34;;;15.61;42.63